sensor_id;sensor_type;location;lat;lon;timestamp;P1;durP1;ratioP1;P2;durP2;ratioP2
22320;SDS011;11328;53.928;18.522;2022-11-04T00:01:15;22.58;;;10.80;;
22320;SDS011;11328;53.928;18.522;2022-11-04T00:03:42;26.45;;;11.10;;
22320;SDS011;11328;53.928;18.522;2022-11-04T00:06:09;26.73;;;11.90;;
22320;SDS011;11328;53.928;18.522;2022-11-04T00:08:36;28.98;;;11.25;;
22320;SDS011;11328;53.928;18.522;2022-11-04T00:11:03;25.35;;;10.82;;
22320;SDS011;11328;53.928;18.522;2022-11-04T00:13:49;28.73;;;11.43;;
22320;SDS011;11328;53.928;18.522;2022-11-04T00:16:16;27.75;;;11.32;;
22320;SDS011;11328;53.928;18.522;2022-11-04T00:19:02;26.33;;;11.13;;
22320;SDS011;11328;53.928;18.522;2022-11-04T00:21:29;30.13;;;12.13;;
22320;SDS011;11328;53.928;18.522;2022-11-04T00:24:14;27.27;;;11.85;;
22320;SDS011;11328;53.928;18.522;2022-11-04T00:27:00;28.42;;;11.35;;
22320;SDS011;11328;53.928;18.522;2022-11-04T00:29:45;23.20;;;10.75;;
22320;SDS011;11328;53.928;18.522;2022-11-04T00:32:12;24.88;;;10.63;;
22320;SDS011;11328;53.928;18.522;2022-11-04T00:34:58;25.95;;;11.35;;
22320;SDS011;11328;53.928;18.522;2022-11-04T00:37:25;23.92;;;11.07;;
22320;SDS011;11328;53.928;18.522;2022-11-04T00:39:52;28.10;;;11.25;;
22320;SDS011;11328;53.928;18.522;2022-11-04T00:42:19;24.58;;;10.82;;
22320;SDS011;11328;53.928;18.522;2022-11-04T00:44:46;23.40;;;11.07;;
22320;SDS011;11328;53.928;18.522;2022-11-04T00:47:13;25.73;;;11.27;;
22320;SDS011;11328;53.928;18.522;2022-11-04T00:49:40;20.13;;;10.98;;
22320;SDS011;11328;53.928;18.522;2022-11-04T00:52:07;23.05;;;11.27;;
22320;SDS011;11328;53.928;18.522;2022-11-04T00:54:33;25.45;;;10.80;;
22320;SDS011;11328;53.928;18.522;2022-11-04T00:57:00;25.05;;;11.23;;
22320;SDS011;11328;53.928;18.522;2022-11-04T00:59:27;21.90;;;10.50;;
22320;SDS011;11328;53.928;18.522;2022-11-04T01:01:55;24.80;;;11.77;;
22320;SDS011;11328;53.928;18.522;2022-11-04T01:04:22;25.88;;;11.27;;
22320;SDS011;11328;53.928;18.522;2022-11-04T01:06:49;23.92;;;11.05;;
22320;SDS011;11328;53.928;18.522;2022-11-04T01:09:16;28.38;;;10.40;;
22320;SDS011;11328;53.928;18.522;2022-11-04T01:11:43;22.00;;;11.00;;
22320;SDS011;11328;53.928;18.522;2022-11-04T01:14:10;26.80;;;11.70;;
22320;SDS011;11328;53.928;18.522;2022-11-04T01:16:38;25.40;;;10.82;;
22320;SDS011;11328;53.928;18.522;2022-11-04T01:19:06;24.48;;;10.82;;
22320;SDS011;11328;53.928;18.522;2022-11-04T01:21:33;23.10;;;11.20;;
22320;SDS011;11328;53.928;18.522;2022-11-04T01:24:00;22.55;;;10.75;;
22320;SDS011;11328;53.928;18.522;2022-11-04T01:26:28;22.63;;;10.45;;
22320;SDS011;11328;53.928;18.522;2022-11-04T01:28:56;27.27;;;10.63;;
22320;SDS011;11328;53.928;18.522;2022-11-04T01:31:26;27.30;;;10.60;;
22320;SDS011;11328;53.928;18.522;2022-11-04T01:33:56;21.88;;;10.93;;
22320;SDS011;11328;53.928;18.522;2022-11-04T01:36:24;22.83;;;10.38;;
22320;SDS011;11328;53.928;18.522;2022-11-04T01:38:54;23.23;;;10.32;;
22320;SDS011;11328;53.928;18.522;2022-11-04T01:52:56;24.58;;;10.45;;
22320;SDS011;11328;53.928;18.522;2022-11-04T01:55:41;20.08;;;10.68;;
22320;SDS011;11328;53.928;18.522;2022-11-04T01:58:16;25.83;;;10.88;;
22320;SDS011;11328;53.928;18.522;2022-11-04T02:00:47;23.80;;;10.07;;
22320;SDS011;11328;53.928;18.522;2022-11-04T02:05:45;20.60;;;9.90;;
22320;SDS011;11328;53.928;18.522;2022-11-04T02:08:14;25.80;;;10.32;;
22320;SDS011;11328;53.928;18.522;2022-11-04T02:10:47;19.33;;;9.80;;
22320;SDS011;11328;53.928;18.522;2022-11-04T02:13:23;16.45;;;10.32;;
22320;SDS011;11328;53.928;18.522;2022-11-04T02:15:54;20.77;;;9.52;;
22320;SDS011;11328;53.928;18.522;2022-11-04T02:30:19;21.15;;;9.77;;
22320;SDS011;11328;53.928;18.522;2022-11-04T02:38:36;18.77;;;9.48;;
22320;SDS011;11328;53.928;18.522;2022-11-04T02:41:35;21.25;;;9.50;;
22320;SDS011;11328;53.928;18.522;2022-11-04T02:44:15;23.60;;;10.00;;
22320;SDS011;11328;53.928;18.522;2022-11-04T02:47:25;24.65;;;8.93;;
22320;SDS011;11328;53.928;18.522;2022-11-04T02:49:58;23.20;;;10.00;;
22320;SDS011;11328;53.928;18.522;2022-11-04T02:55:05;19.23;;;9.00;;
22320;SDS011;11328;53.928;18.522;2022-11-04T02:57:42;18.40;;;8.50;;
22320;SDS011;11328;53.928;18.522;2022-11-04T03:00:13;24.33;;;9.52;;
22320;SDS011;11328;53.928;18.522;2022-11-04T03:02:45;20.75;;;9.35;;
22320;SDS011;11328;53.928;18.522;2022-11-04T03:05:32;19.40;;;8.73;;
22320;SDS011;11328;53.928;18.522;2022-11-04T03:08:15;21.08;;;9.23;;
22320;SDS011;11328;53.928;18.522;2022-11-04T03:11:15;17.98;;;8.93;;
22320;SDS011;11328;53.928;18.522;2022-11-04T03:14:03;20.17;;;8.48;;
22320;SDS011;11328;53.928;18.522;2022-11-04T03:17:00;18.08;;;8.55;;
22320;SDS011;11328;53.928;18.522;2022-11-04T03:22:11;21.70;;;9.50;;
22320;SDS011;11328;53.928;18.522;2022-11-04T03:24:44;22.05;;;9.48;;
22320;SDS011;11328;53.928;18.522;2022-11-04T03:30:16;18.98;;;9.23;;
22320;SDS011;11328;53.928;18.522;2022-11-04T03:35:45;20.42;;;9.52;;
22320;SDS011;11328;53.928;18.522;2022-11-04T03:38:12;21.67;;;9.90;;
22320;SDS011;11328;53.928;18.522;2022-11-04T03:40:40;17.63;;;9.32;;
22320;SDS011;11328;53.928;18.522;2022-11-04T03:43:11;20.40;;;9.43;;
22320;SDS011;11328;53.928;18.522;2022-11-04T03:45:44;22.23;;;9.88;;
22320;SDS011;11328;53.928;18.522;2022-11-04T03:48:12;21.10;;;9.93;;
22320;SDS011;11328;53.928;18.522;2022-11-04T03:50:40;17.58;;;8.90;;
22320;SDS011;11328;53.928;18.522;2022-11-04T03:53:10;21.33;;;9.52;;
22320;SDS011;11328;53.928;18.522;2022-11-04T03:55:44;21.27;;;9.48;;
22320;SDS011;11328;53.928;18.522;2022-11-04T03:58:42;20.38;;;9.45;;
22320;SDS011;11328;53.928;18.522;2022-11-04T04:02:11;22.08;;;9.50;;
22320;SDS011;11328;53.928;18.522;2022-11-04T04:08:09;21.10;;;9.13;;
22320;SDS011;11328;53.928;18.522;2022-11-04T04:17:51;22.80;;;9.57;;
22320;SDS011;11328;53.928;18.522;2022-11-04T04:20:09;20.65;;;10.48;;
22320;SDS011;11328;53.928;18.522;2022-11-04T04:22:52;21.17;;;9.55;;
22320;SDS011;11328;53.928;18.522;2022-11-04T04:25:27;20.77;;;9.98;;
22320;SDS011;11328;53.928;18.522;2022-11-04T04:28:16;23.02;;;10.45;;
22320;SDS011;11328;53.928;18.522;2022-11-04T04:30:44;21.98;;;10.18;;
22320;SDS011;11328;53.928;18.522;2022-11-04T04:33:12;19.40;;;10.57;;
22320;SDS011;11328;53.928;18.522;2022-11-04T04:35:48;22.55;;;10.00;;
22320;SDS011;11328;53.928;18.522;2022-11-04T04:38:26;24.52;;;10.38;;
22320;SDS011;11328;53.928;18.522;2022-11-04T04:41:15;20.03;;;10.33;;
22320;SDS011;11328;53.928;18.522;2022-11-04T04:47:12;19.88;;;10.15;;
22320;SDS011;11328;53.928;18.522;2022-11-04T04:49:55;22.63;;;11.05;;
22320;SDS011;11328;53.928;18.522;2022-11-04T04:52:26;18.15;;;9.88;;
22320;SDS011;11328;53.928;18.522;2022-11-04T04:54:59;21.50;;;10.43;;
22320;SDS011;11328;53.928;18.522;2022-11-04T04:57:26;24.60;;;10.15;;
22320;SDS011;11328;53.928;18.522;2022-11-04T04:59:53;24.15;;;10.65;;
22320;SDS011;11328;53.928;18.522;2022-11-04T05:02:20;20.30;;;10.35;;
22320;SDS011;11328;53.928;18.522;2022-11-04T05:04:48;20.95;;;10.45;;
22320;SDS011;11328;53.928;18.522;2022-11-04T05:07:15;20.80;;;10.50;;
22320;SDS011;11328;53.928;18.522;2022-11-04T05:09:42;23.40;;;11.18;;
22320;SDS011;11328;53.928;18.522;2022-11-04T05:12:09;22.10;;;10.00;;
22320;SDS011;11328;53.928;18.522;2022-11-04T05:14:36;19.90;;;10.30;;
22320;SDS011;11328;53.928;18.522;2022-11-04T05:17:03;25.27;;;10.93;;
22320;SDS011;11328;53.928;18.522;2022-11-04T05:19:30;21.15;;;10.23;;
22320;SDS011;11328;53.928;18.522;2022-11-04T05:21:57;21.83;;;10.77;;
22320;SDS011;11328;53.928;18.522;2022-11-04T05:24:24;23.55;;;10.70;;
22320;SDS011;11328;53.928;18.522;2022-11-04T05:26:51;21.95;;;10.88;;
22320;SDS011;11328;53.928;18.522;2022-11-04T05:29:18;20.80;;;10.38;;
22320;SDS011;11328;53.928;18.522;2022-11-04T05:31:45;20.33;;;10.68;;
22320;SDS011;11328;53.928;18.522;2022-11-04T05:34:12;25.10;;;11.32;;
22320;SDS011;11328;53.928;18.522;2022-11-04T05:36:39;22.48;;;10.73;;
22320;SDS011;11328;53.928;18.522;2022-11-04T05:39:07;21.10;;;10.95;;
22320;SDS011;11328;53.928;18.522;2022-11-04T05:41:37;27.05;;;11.05;;
22320;SDS011;11328;53.928;18.522;2022-11-04T05:44:04;20.13;;;11.15;;
22320;SDS011;11328;53.928;18.522;2022-11-04T05:46:34;21.00;;;10.55;;
22320;SDS011;11328;53.928;18.522;2022-11-04T05:49:01;23.25;;;10.55;;
22320;SDS011;11328;53.928;18.522;2022-11-04T05:51:29;23.98;;;10.68;;
22320;SDS011;11328;53.928;18.522;2022-11-04T05:53:57;22.08;;;10.98;;
22320;SDS011;11328;53.928;18.522;2022-11-04T05:56:24;19.42;;;10.57;;
22320;SDS011;11328;53.928;18.522;2022-11-04T05:58:51;24.85;;;10.65;;
22320;SDS011;11328;53.928;18.522;2022-11-04T06:03:53;23.58;;;11.00;;
22320;SDS011;11328;53.928;18.522;2022-11-04T06:06:22;19.60;;;10.40;;
22320;SDS011;11328;53.928;18.522;2022-11-04T06:08:51;21.33;;;10.57;;
22320;SDS011;11328;53.928;18.522;2022-11-04T06:11:20;21.02;;;10.55;;
22320;SDS011;11328;53.928;18.522;2022-11-04T06:13:48;26.80;;;11.07;;
22320;SDS011;11328;53.928;18.522;2022-11-04T06:16:17;23.08;;;11.20;;
22320;SDS011;11328;53.928;18.522;2022-11-04T06:18:44;21.58;;;10.95;;
22320;SDS011;11328;53.928;18.522;2022-11-04T06:23:40;21.60;;;10.32;;
22320;SDS011;11328;53.928;18.522;2022-11-04T06:26:08;17.92;;;10.60;;
22320;SDS011;11328;53.928;18.522;2022-11-04T06:28:37;21.52;;;11.13;;
22320;SDS011;11328;53.928;18.522;2022-11-04T06:31:05;25.67;;;11.25;;
22320;SDS011;11328;53.928;18.522;2022-11-04T06:33:34;20.80;;;10.60;;
22320;SDS011;11328;53.928;18.522;2022-11-04T06:36:03;20.35;;;10.23;;
22320;SDS011;11328;53.928;18.522;2022-11-04T06:38:33;19.92;;;10.20;;
22320;SDS011;11328;53.928;18.522;2022-11-04T06:41:06;24.63;;;10.73;;
22320;SDS011;11328;53.928;18.522;2022-11-04T06:43:37;25.73;;;9.95;;
22320;SDS011;11328;53.928;18.522;2022-11-04T06:46:05;22.58;;;11.15;;
22320;SDS011;11328;53.928;18.522;2022-11-04T06:48:54;20.60;;;10.13;;
22320;SDS011;11328;53.928;18.522;2022-11-04T06:51:22;19.50;;;10.70;;
22320;SDS011;11328;53.928;18.522;2022-11-04T06:53:51;19.95;;;10.30;;
22320;SDS011;11328;53.928;18.522;2022-11-04T06:56:18;23.23;;;13.13;;
22320;SDS011;11328;53.928;18.522;2022-11-04T06:58:51;19.73;;;9.82;;
22320;SDS011;11328;53.928;18.522;2022-11-04T07:01:21;20.08;;;10.65;;
22320;SDS011;11328;53.928;18.522;2022-11-04T07:03:52;23.88;;;11.77;;
22320;SDS011;11328;53.928;18.522;2022-11-04T07:06:22;20.50;;;10.65;;
22320;SDS011;11328;53.928;18.522;2022-11-04T07:08:50;23.98;;;11.23;;
22320;SDS011;11328;53.928;18.522;2022-11-04T07:11:19;22.45;;;10.95;;
22320;SDS011;11328;53.928;18.522;2022-11-04T07:13:48;22.65;;;11.43;;
22320;SDS011;11328;53.928;18.522;2022-11-04T07:16:15;21.35;;;11.10;;
22320;SDS011;11328;53.928;18.522;2022-11-04T07:18:43;22.42;;;11.45;;
22320;SDS011;11328;53.928;18.522;2022-11-04T07:34:37;19.85;;;10.57;;
22320;SDS011;11328;53.928;18.522;2022-11-04T07:37:04;20.10;;;10.82;;
22320;SDS011;11328;53.928;18.522;2022-11-04T07:39:31;18.38;;;9.82;;
22320;SDS011;11328;53.928;18.522;2022-11-04T07:41:58;20.15;;;9.93;;
22320;SDS011;11328;53.928;18.522;2022-11-04T07:44:25;20.13;;;9.95;;
22320;SDS011;11328;53.928;18.522;2022-11-04T07:46:53;17.08;;;9.45;;
22320;SDS011;11328;53.928;18.522;2022-11-04T07:49:20;22.95;;;10.48;;
22320;SDS011;11328;53.928;18.522;2022-11-04T07:51:47;18.42;;;9.90;;
22320;SDS011;11328;53.928;18.522;2022-11-04T07:54:14;19.63;;;10.02;;
22320;SDS011;11328;53.928;18.522;2022-11-04T07:56:41;20.40;;;9.75;;
22320;SDS011;11328;53.928;18.522;2022-11-04T07:59:08;17.73;;;9.73;;
22320;SDS011;11328;53.928;18.522;2022-11-04T08:01:36;20.83;;;9.88;;
22320;SDS011;11328;53.928;18.522;2022-11-04T08:04:03;17.17;;;9.60;;
22320;SDS011;11328;53.928;18.522;2022-11-04T08:06:32;19.00;;;9.90;;
22320;SDS011;11328;53.928;18.522;2022-11-04T08:08:59;22.08;;;9.88;;
22320;SDS011;11328;53.928;18.522;2022-11-04T08:11:26;18.60;;;9.77;;
22320;SDS011;11328;53.928;18.522;2022-11-04T08:13:54;17.33;;;9.68;;
22320;SDS011;11328;53.928;18.522;2022-11-04T08:16:22;20.55;;;10.95;;
22320;SDS011;11328;53.928;18.522;2022-11-04T08:18:58;24.40;;;10.70;;
22320;SDS011;11328;53.928;18.522;2022-11-04T08:21:27;20.30;;;10.57;;
22320;SDS011;11328;53.928;18.522;2022-11-04T08:23:56;26.85;;;16.27;;
22320;SDS011;11328;53.928;18.522;2022-11-04T08:26:23;19.25;;;10.35;;
22320;SDS011;11328;53.928;18.522;2022-11-04T08:28:51;17.98;;;10.40;;
22320;SDS011;11328;53.928;18.522;2022-11-04T08:31:19;22.45;;;9.93;;
22320;SDS011;11328;53.928;18.522;2022-11-04T08:33:53;18.33;;;9.27;;
22320;SDS011;11328;53.928;18.522;2022-11-04T08:36:32;17.23;;;9.18;;
22320;SDS011;11328;53.928;18.522;2022-11-04T08:39:02;20.17;;;9.63;;
22320;SDS011;11328;53.928;18.522;2022-11-04T08:41:36;19.60;;;9.85;;
22320;SDS011;11328;53.928;18.522;2022-11-04T08:44:09;18.75;;;9.10;;
22320;SDS011;11328;53.928;18.522;2022-11-04T08:46:39;17.08;;;9.75;;
22320;SDS011;11328;53.928;18.522;2022-11-04T08:49:10;19.02;;;9.93;;
22320;SDS011;11328;53.928;18.522;2022-11-04T08:51:45;16.63;;;9.60;;
22320;SDS011;11328;53.928;18.522;2022-11-04T08:54:14;18.63;;;9.88;;
22320;SDS011;11328;53.928;18.522;2022-11-04T08:56:42;20.67;;;9.93;;
22320;SDS011;11328;53.928;18.522;2022-11-04T08:59:09;19.60;;;9.80;;
22320;SDS011;11328;53.928;18.522;2022-11-04T09:01:37;20.38;;;9.60;;
22320;SDS011;11328;53.928;18.522;2022-11-04T09:04:04;20.90;;;10.90;;
22320;SDS011;11328;53.928;18.522;2022-11-04T09:06:36;19.58;;;10.02;;
22320;SDS011;11328;53.928;18.522;2022-11-04T09:09:08;20.98;;;9.45;;
22320;SDS011;11328;53.928;18.522;2022-11-04T09:11:42;20.25;;;10.00;;
22320;SDS011;11328;53.928;18.522;2022-11-04T09:14:11;19.95;;;10.13;;
22320;SDS011;11328;53.928;18.522;2022-11-04T09:16:38;20.38;;;9.45;;
22320;SDS011;11328;53.928;18.522;2022-11-04T09:19:10;22.38;;;10.10;;
22320;SDS011;11328;53.928;18.522;2022-11-04T09:21:37;19.50;;;9.90;;
22320;SDS011;11328;53.928;18.522;2022-11-04T09:24:04;22.92;;;9.48;;
22320;SDS011;11328;53.928;18.522;2022-11-04T09:26:33;19.92;;;8.95;;
22320;SDS011;11328;53.928;18.522;2022-11-04T09:29:00;20.23;;;9.65;;
22320;SDS011;11328;53.928;18.522;2022-11-04T09:31:28;19.52;;;9.93;;
22320;SDS011;11328;53.928;18.522;2022-11-04T09:33:56;20.88;;;10.02;;
22320;SDS011;11328;53.928;18.522;2022-11-04T09:36:23;22.48;;;9.82;;
22320;SDS011;11328;53.928;18.522;2022-11-04T09:38:52;19.67;;;10.38;;
22320;SDS011;11328;53.928;18.522;2022-11-04T09:46:48;24.33;;;12.00;;
22320;SDS011;11328;53.928;18.522;2022-11-04T09:49:18;22.15;;;11.55;;
22320;SDS011;11328;53.928;18.522;2022-11-04T09:51:46;19.65;;;10.55;;
22320;SDS011;11328;53.928;18.522;2022-11-04T09:54:24;20.23;;;10.00;;
22320;SDS011;11328;53.928;18.522;2022-11-04T09:57:15;20.08;;;10.15;;
22320;SDS011;11328;53.928;18.522;2022-11-04T09:59:45;17.95;;;10.23;;
22320;SDS011;11328;53.928;18.522;2022-11-04T10:05:08;19.45;;;9.75;;
22320;SDS011;11328;53.928;18.522;2022-11-04T10:10:49;20.33;;;10.50;;
22320;SDS011;11328;53.928;18.522;2022-11-04T10:13:52;18.63;;;9.77;;
22320;SDS011;11328;53.928;18.522;2022-11-04T10:25:11;18.27;;;10.68;;
22320;SDS011;11328;53.928;18.522;2022-11-04T10:27:42;21.45;;;10.35;;
22320;SDS011;11328;53.928;18.522;2022-11-04T10:30:17;16.63;;;9.55;;
22320;SDS011;11328;53.928;18.522;2022-11-04T10:35:59;18.88;;;10.02;;
22320;SDS011;11328;53.928;18.522;2022-11-04T10:43:42;20.60;;;9.38;;
22320;SDS011;11328;53.928;18.522;2022-11-04T10:52:53;19.35;;;10.02;;
22320;SDS011;11328;53.928;18.522;2022-11-04T10:55:58;19.88;;;10.65;;
22320;SDS011;11328;53.928;18.522;2022-11-04T10:58:45;21.08;;;10.77;;
22320;SDS011;11328;53.928;18.522;2022-11-04T11:01:27;17.73;;;10.27;;
22320;SDS011;11328;53.928;18.522;2022-11-04T11:03:57;20.77;;;10.25;;
22320;SDS011;11328;53.928;18.522;2022-11-04T11:06:28;21.70;;;10.75;;
22320;SDS011;11328;53.928;18.522;2022-11-04T11:09:10;20.45;;;10.63;;
22320;SDS011;11328;53.928;18.522;2022-11-04T11:11:55;17.08;;;9.93;;
22320;SDS011;11328;53.928;18.522;2022-11-04T11:16:54;23.23;;;10.77;;
22320;SDS011;11328;53.928;18.522;2022-11-04T11:19:24;19.60;;;11.07;;
22320;SDS011;11328;53.928;18.522;2022-11-04T11:21:52;18.85;;;10.98;;
22320;SDS011;11328;53.928;18.522;2022-11-04T11:24:24;21.30;;;11.15;;
22320;SDS011;11328;53.928;18.522;2022-11-04T11:26:56;22.58;;;11.88;;
22320;SDS011;11328;53.928;18.522;2022-11-04T11:29:33;22.83;;;11.88;;
22320;SDS011;11328;53.928;18.522;2022-11-04T11:32:05;21.55;;;11.05;;
22320;SDS011;11328;53.928;18.522;2022-11-04T11:34:58;24.77;;;11.47;;
22320;SDS011;11328;53.928;18.522;2022-11-04T11:39:58;19.70;;;10.88;;
22320;SDS011;11328;53.928;18.522;2022-11-04T11:42:25;24.02;;;11.30;;
22320;SDS011;11328;53.928;18.522;2022-11-04T11:44:56;20.33;;;11.32;;
22320;SDS011;11328;53.928;18.522;2022-11-04T11:52:44;22.42;;;11.65;;
22320;SDS011;11328;53.928;18.522;2022-11-04T11:55:22;24.98;;;12.38;;
22320;SDS011;11328;53.928;18.522;2022-11-04T12:04:12;20.15;;;11.23;;
22320;SDS011;11328;53.928;18.522;2022-11-04T12:13:22;20.20;;;12.10;;
22320;SDS011;11328;53.928;18.522;2022-11-04T12:19:03;25.08;;;11.95;;
22320;SDS011;11328;53.928;18.522;2022-11-04T12:30:25;19.48;;;11.13;;
22320;SDS011;11328;53.928;18.522;2022-11-04T12:36:13;19.40;;;11.07;;
22320;SDS011;11328;53.928;18.522;2022-11-04T12:47:50;22.33;;;12.00;;
22320;SDS011;11328;53.928;18.522;2022-11-04T13:01:31;25.23;;;14.00;;
22320;SDS011;11328;53.928;18.522;2022-11-04T13:06:52;24.40;;;13.45;;
22320;SDS011;11328;53.928;18.522;2022-11-04T13:12:26;22.35;;;12.93;;
22320;SDS011;11328;53.928;18.522;2022-11-04T13:17:46;18.50;;;11.80;;
22320;SDS011;11328;53.928;18.522;2022-11-04T13:20:24;21.23;;;12.13;;
22320;SDS011;11328;53.928;18.522;2022-11-04T13:22:59;21.85;;;12.60;;
22320;SDS011;11328;53.928;18.522;2022-11-04T13:25:36;22.35;;;12.43;;
22320;SDS011;11328;53.928;18.522;2022-11-04T13:28:11;20.70;;;12.43;;
22320;SDS011;11328;53.928;18.522;2022-11-04T13:36:35;22.33;;;13.15;;
22320;SDS011;11328;53.928;18.522;2022-11-04T13:39:24;23.38;;;12.60;;
22320;SDS011;11328;53.928;18.522;2022-11-04T13:42:14;21.27;;;12.73;;
22320;SDS011;11328;53.928;18.522;2022-11-04T13:45:11;22.80;;;12.77;;
22320;SDS011;11328;53.928;18.522;2022-11-04T13:50:32;22.17;;;12.75;;
22320;SDS011;11328;53.928;18.522;2022-11-04T13:53:07;23.30;;;12.35;;
22320;SDS011;11328;53.928;18.522;2022-11-04T13:55:47;23.00;;;12.57;;
22320;SDS011;11328;53.928;18.522;2022-11-04T13:58:18;19.80;;;11.65;;
22320;SDS011;11328;53.928;18.522;2022-11-04T14:01:07;20.95;;;12.52;;
22320;SDS011;11328;53.928;18.522;2022-11-04T14:03:48;22.45;;;12.50;;
22320;SDS011;11328;53.928;18.522;2022-11-04T14:06:53;21.58;;;11.95;;
22320;SDS011;11328;53.928;18.522;2022-11-04T14:14:40;24.58;;;12.57;;
22320;SDS011;11328;53.928;18.522;2022-11-04T14:20:00;28.63;;;13.23;;
22320;SDS011;11328;53.928;18.522;2022-11-04T14:22:51;20.63;;;12.50;;
22320;SDS011;11328;53.928;18.522;2022-11-04T14:25:29;23.58;;;12.85;;
22320;SDS011;11328;53.928;18.522;2022-11-04T14:30:41;21.58;;;11.68;;
22320;SDS011;11328;53.928;18.522;2022-11-04T14:33:38;24.50;;;12.32;;
22320;SDS011;11328;53.928;18.522;2022-11-04T14:46:47;21.60;;;12.85;;
22320;SDS011;11328;53.928;18.522;2022-11-04T14:49:27;26.73;;;12.98;;
22320;SDS011;11328;53.928;18.522;2022-11-04T14:51:56;22.80;;;13.68;;
22320;SDS011;11328;53.928;18.522;2022-11-04T14:54:24;23.15;;;14.00;;
22320;SDS011;11328;53.928;18.522;2022-11-04T14:59:44;22.92;;;14.27;;
22320;SDS011;11328;53.928;18.522;2022-11-04T15:02:22;20.27;;;13.77;;
22320;SDS011;11328;53.928;18.522;2022-11-04T15:04:57;25.80;;;14.23;;
22320;SDS011;11328;53.928;18.522;2022-11-04T15:10:02;22.60;;;13.85;;
22320;SDS011;11328;53.928;18.522;2022-11-04T15:13:01;36.42;;;18.40;;
22320;SDS011;11328;53.928;18.522;2022-11-04T15:18:39;21.95;;;12.77;;
22320;SDS011;11328;53.928;18.522;2022-11-04T15:20:55;56.45;;;14.55;;
22320;SDS011;11328;53.928;18.522;2022-11-04T15:23:26;23.40;;;12.70;;
22320;SDS011;11328;53.928;18.522;2022-11-04T15:25:57;23.00;;;13.20;;
22320;SDS011;11328;53.928;18.522;2022-11-04T15:28:29;27.80;;;16.52;;
22320;SDS011;11328;53.928;18.522;2022-11-04T15:33:37;27.17;;;15.05;;
22320;SDS011;11328;53.928;18.522;2022-11-04T15:36:22;25.75;;;15.13;;
22320;SDS011;11328;53.928;18.522;2022-11-04T15:38:58;28.23;;;15.02;;
22320;SDS011;11328;53.928;18.522;2022-11-04T15:41:40;27.40;;;15.25;;
22320;SDS011;11328;53.928;18.522;2022-11-04T15:44:29;27.55;;;15.77;;
22320;SDS011;11328;53.928;18.522;2022-11-04T15:47:00;28.35;;;15.93;;
22320;SDS011;11328;53.928;18.522;2022-11-04T15:49:45;29.15;;;16.77;;
22320;SDS011;11328;53.928;18.522;2022-11-04T15:52:24;29.17;;;17.05;;
22320;SDS011;11328;53.928;18.522;2022-11-04T15:54:55;25.60;;;16.25;;
22320;SDS011;11328;53.928;18.522;2022-11-04T16:00:03;27.90;;;16.52;;
22320;SDS011;11328;53.928;18.522;2022-11-04T16:02:54;47.38;;;26.60;;
22320;SDS011;11328;53.928;18.522;2022-11-04T16:11:10;36.80;;;23.73;;
22320;SDS011;11328;53.928;18.522;2022-11-04T16:13:44;62.23;;;41.07;;
22320;SDS011;11328;53.928;18.522;2022-11-04T16:18:53;54.25;;;39.00;;
22320;SDS011;11328;53.928;18.522;2022-11-04T16:21:29;56.58;;;38.30;;
22320;SDS011;11328;53.928;18.522;2022-11-04T16:24:14;35.60;;;23.42;;
22320;SDS011;11328;53.928;18.522;2022-11-04T16:26:49;53.45;;;37.58;;
22320;SDS011;11328;53.928;18.522;2022-11-04T16:29:28;53.45;;;35.17;;
22320;SDS011;11328;53.928;18.522;2022-11-04T16:34:52;26.38;;;16.05;;
22320;SDS011;11328;53.928;18.522;2022-11-04T16:37:27;30.75;;;20.00;;
22320;SDS011;11328;53.928;18.522;2022-11-04T16:40:00;35.30;;;25.85;;
22320;SDS011;11328;53.928;18.522;2022-11-04T16:42:34;26.80;;;16.42;;
22320;SDS011;11328;53.928;18.522;2022-11-04T16:45:03;27.10;;;17.85;;
22320;SDS011;11328;53.928;18.522;2022-11-04T16:47:37;30.95;;;19.25;;
22320;SDS011;11328;53.928;18.522;2022-11-04T16:50:14;26.20;;;16.23;;
22320;SDS011;11328;53.928;18.522;2022-11-04T16:52:44;25.25;;;15.35;;
22320;SDS011;11328;53.928;18.522;2022-11-04T16:55:13;26.77;;;15.32;;
22320;SDS011;11328;53.928;18.522;2022-11-04T16:57:45;26.08;;;14.45;;
22320;SDS011;11328;53.928;18.522;2022-11-04T17:00:20;23.55;;;13.57;;
22320;SDS011;11328;53.928;18.522;2022-11-04T17:02:51;22.53;;;13.63;;
22320;SDS011;11328;53.928;18.522;2022-11-04T17:05:20;24.27;;;14.50;;
22320;SDS011;11328;53.928;18.522;2022-11-04T17:07:49;24.25;;;14.07;;
22320;SDS011;11328;53.928;18.522;2022-11-04T17:10:25;28.63;;;13.65;;
22320;SDS011;11328;53.928;18.522;2022-11-04T17:12:54;23.92;;;13.88;;
22320;SDS011;11328;53.928;18.522;2022-11-04T17:15:23;27.05;;;15.07;;
22320;SDS011;11328;53.928;18.522;2022-11-04T17:17:57;23.17;;;13.40;;
22320;SDS011;11328;53.928;18.522;2022-11-04T17:20:27;23.45;;;13.10;;
22320;SDS011;11328;53.928;18.522;2022-11-04T17:22:59;22.05;;;13.18;;
22320;SDS011;11328;53.928;18.522;2022-11-04T17:25:31;24.55;;;13.45;;
22320;SDS011;11328;53.928;18.522;2022-11-04T17:28:00;20.50;;;12.82;;
22320;SDS011;11328;53.928;18.522;2022-11-04T17:30:31;20.98;;;12.50;;
22320;SDS011;11328;53.928;18.522;2022-11-04T17:33:01;20.20;;;13.02;;
22320;SDS011;11328;53.928;18.522;2022-11-04T17:35:36;20.35;;;12.68;;
22320;SDS011;11328;53.928;18.522;2022-11-04T17:38:08;20.70;;;12.45;;
22320;SDS011;11328;53.928;18.522;2022-11-04T17:40:40;21.15;;;11.73;;
22320;SDS011;11328;53.928;18.522;2022-11-04T17:43:26;19.52;;;11.68;;
22320;SDS011;11328;53.928;18.522;2022-11-04T17:46:14;19.73;;;12.63;;
22320;SDS011;11328;53.928;18.522;2022-11-04T17:49:15;22.02;;;12.10;;
22320;SDS011;11328;53.928;18.522;2022-11-04T17:51:47;23.58;;;11.70;;
22320;SDS011;11328;53.928;18.522;2022-11-04T17:54:22;23.92;;;14.10;;
22320;SDS011;11328;53.928;18.522;2022-11-04T17:56:53;21.80;;;12.40;;
22320;SDS011;11328;53.928;18.522;2022-11-04T17:59:23;21.02;;;10.40;;
22320;SDS011;11328;53.928;18.522;2022-11-04T18:01:50;23.25;;;11.73;;
22320;SDS011;11328;53.928;18.522;2022-11-04T18:04:19;19.30;;;10.55;;
22320;SDS011;11328;53.928;18.522;2022-11-04T18:06:49;19.45;;;10.52;;
22320;SDS011;11328;53.928;18.522;2022-11-04T18:09:25;20.08;;;10.60;;
22320;SDS011;11328;53.928;18.522;2022-11-04T18:11:54;21.42;;;10.75;;
22320;SDS011;11328;53.928;18.522;2022-11-04T18:26:55;22.17;;;10.60;;
22320;SDS011;11328;53.928;18.522;2022-11-04T18:29:26;20.25;;;10.55;;
22320;SDS011;11328;53.928;18.522;2022-11-04T18:31:55;19.92;;;10.30;;
22320;SDS011;11328;53.928;18.522;2022-11-04T18:34:32;21.25;;;10.73;;
22320;SDS011;11328;53.928;18.522;2022-11-04T18:37:10;30.85;;;20.17;;
22320;SDS011;11328;53.928;18.522;2022-11-04T18:39:40;22.75;;;14.15;;
22320;SDS011;11328;53.928;18.522;2022-11-04T18:42:09;25.58;;;17.55;;
22320;SDS011;11328;53.928;18.522;2022-11-04T18:44:37;17.42;;;10.75;;
22320;SDS011;11328;53.928;18.522;2022-11-04T18:47:07;20.73;;;10.70;;
22320;SDS011;11328;53.928;18.522;2022-11-04T18:49:37;19.90;;;10.05;;